createdAt,value
2023-05-07T00:00:28.000Z,1017.3
2023-05-07T00:01:44.311Z,1017.3
2023-05-07T00:03:00.500Z,1017.4
2023-05-07T00:04:16.703Z,1017.4
2023-05-07T00:05:14.898Z,1017.4
2023-05-07T00:06:49.082Z,1017.4
2023-05-07T00:08:04.000Z,1017.4
2023-05-07T00:09:20.510Z,1017.4
2023-05-07T00:10:35.735Z,1017.5
2023-05-07T00:11:50.946Z,1017.5
2023-05-07T00:13:07.140Z,1017.5
2023-05-07T00:14:05.335Z,1017.4
2023-05-07T00:15:39.000Z,1017.5
2023-05-07T00:16:55.726Z,1017.4
2023-05-07T00:18:11.924Z,1017.4
2023-05-07T00:19:10.117Z,1017.4
2023-05-07T00:20:44.000Z,1017.4
2023-05-07T00:22:00.501Z,1017.4
2023-05-07T00:23:16.000Z,1017.4
2023-05-07T00:24:32.896Z,1017.4
2023-05-07T00:25:49.000Z,1017.4
2023-05-07T00:26:47.289Z,1017.4
2023-05-07T00:28:21.482Z,1017.4
2023-05-07T00:29:37.680Z,1017.4
2023-05-07T00:30:53.867Z,1017.3
2023-05-07T00:32:09.092Z,1017.5
2023-05-07T00:33:25.277Z,1017.3
2023-05-07T00:34:41.468Z,1017.4
2023-05-07T00:36:24.000Z,1017.4
2023-05-07T00:37:13.874Z,1017.3
2023-05-07T00:38:29.000Z,1017.3
2023-05-07T00:39:27.287Z,1017.4
2023-05-07T00:41:00.509Z,1017.3
2023-05-07T00:42:16.000Z,1017.4
2023-05-07T00:43:32.900Z,1017.4
2023-05-07T00:45:15.000Z,1017.3
2023-05-07T00:46:05.000Z,1017.4
2023-05-07T00:47:21.493Z,1017.4
2023-05-07T00:48:36.713Z,1017.3
2023-05-07T00:49:52.907Z,1017.4
2023-05-07T00:51:08.000Z,1017.3
2023-05-07T00:52:24.326Z,1017.3
2023-05-07T00:53:40.000Z,1017.4
2023-05-07T00:54:56.000Z,1017.4
2023-05-07T00:56:12.000Z,1017.3
2023-05-07T00:57:11.113Z,1017.4
2023-05-07T00:58:44.326Z,1017.4
2023-05-07T00:59:42.521Z,1017.3
2023-05-07T01:01:16.000Z,1017.4
2023-05-07T01:02:32.917Z,1017.3
2023-05-07T01:03:49.102Z,1017.3
2023-05-07T01:04:47.302Z,1017.4
2023-05-07T01:06:21.500Z,1017.4
2023-05-07T01:07:37.694Z,1017.4
2023-05-07T01:08:53.890Z,1017.3
2023-05-07T01:10:10.084Z,1017.4
2023-05-07T01:11:26.000Z,1017.3
2023-05-07T01:12:42.483Z,1017.4
2023-05-07T01:13:58.677Z,1017.4
2023-05-07T01:15:14.860Z,1017.3
2023-05-07T01:16:30.000Z,1017.4
2023-05-07T01:17:28.273Z,1017.5
2023-05-07T01:19:01.496Z,1017.4
2023-05-07T01:20:17.691Z,1017.4
2023-05-07T01:21:15.887Z,1017.5
2023-05-07T01:22:49.000Z,1017.4
2023-05-07T01:24:05.000Z,1017.3
2023-05-07T01:25:03.501Z,1017.4
2023-05-07T01:26:37.000Z,1017.4
2023-05-07T01:27:53.886Z,1017.4
2023-05-07T01:29:09.000Z,1017.4
2023-05-07T01:30:07.299Z,1017.5
2023-05-07T01:31:41.000Z,1017.5
2023-05-07T01:32:57.000Z,1017.4
2023-05-07T01:34:13.876Z,1017.5
2023-05-07T01:35:30.000Z,1017.5
2023-05-07T01:36:46.272Z,1017.5
2023-05-07T01:37:44.472Z,1017.5
2023-05-07T01:39:18.668Z,1017.4
2023-05-07T01:40:34.864Z,1017.5
2023-05-07T01:41:51.000Z,1017.4
2023-05-07T01:42:49.255Z,1017.5
2023-05-07T01:44:23.448Z,1017.5
2023-05-07T01:45:38.662Z,1017.5
2023-05-07T01:46:54.859Z,1017.4
2023-05-07T01:48:37.000Z,1017.5
2023-05-07T01:49:27.251Z,1017.4
2023-05-07T01:50:43.452Z,1017.5
2023-05-07T01:51:40.666Z,1017.5
2023-05-07T01:52:56.861Z,1017.5
2023-05-07T01:54:30.084Z,1017.6
2023-05-07T01:55:46.000Z,1017.5
2023-05-07T01:57:01.486Z,1017.5
2023-05-07T01:58:17.000Z,1017.5
2023-05-07T01:59:33.883Z,1017.5
2023-05-07T02:00:32.077Z,1017.6
2023-05-07T02:02:06.000Z,1017.5
2023-05-07T02:03:04.464Z,1017.5
2023-05-07T02:04:38.000Z,1017.5
2023-05-07T02:05:54.850Z,1017.5
2023-05-07T02:07:11.045Z,1017.5
2023-05-07T02:08:09.238Z,1017.6
2023-05-07T02:09:43.431Z,1017.5
2023-05-07T02:10:59.000Z,1017.6
2023-05-07T02:12:15.810Z,1017.6
2023-05-07T02:13:14.011Z,1017.6
2023-05-07T02:14:47.226Z,1017.6
2023-05-07T02:15:45.414Z,1017.6
2023-05-07T02:17:19.000Z,1017.6
2023-05-07T02:18:35.795Z,1017.7
2023-05-07T02:19:51.984Z,1017.6
2023-05-07T02:21:07.205Z,1017.6
2023-05-07T02:22:50.000Z,1017.6
2023-05-07T02:23:39.599Z,1017.6
2023-05-07T02:24:55.000Z,1017.6
2023-05-07T02:26:11.992Z,1017.6
2023-05-07T02:27:27.191Z,1017.6
2023-05-07T02:28:25.388Z,1017.7
2023-05-07T02:29:59.573Z,1017.7
2023-05-07T02:31:15.780Z,1017.7
2023-05-07T02:32:31.000Z,1017.7
2023-05-07T02:33:48.171Z,1017.7
2023-05-07T02:35:04.352Z,1017.6
2023-05-07T02:36:20.000Z,1017.7
2023-05-07T02:37:36.733Z,1017.6
2023-05-07T02:38:52.000Z,1017.7
2023-05-07T02:40:09.000Z,1017.7
2023-05-07T02:41:07.321Z,1017.7
2023-05-07T02:42:41.514Z,1017.6
2023-05-07T02:43:57.716Z,1017.7
2023-05-07T02:45:13.000Z,1017.7
2023-05-07T02:46:12.094Z,1017.7
2023-05-07T02:47:46.287Z,1017.7
2023-05-07T02:49:02.481Z,1017.7
2023-05-07T02:50:18.679Z,1017.7
2023-05-07T02:51:15.893Z,1017.7
2023-05-07T02:52:50.085Z,1017.7
2023-05-07T02:53:47.309Z,1017.7
2023-05-07T02:55:20.000Z,1017.7
2023-05-07T02:56:18.712Z,1017.8
2023-05-07T02:57:33.932Z,1017.8
2023-05-07T02:59:07.136Z,1017.9
2023-05-07T03:00:23.326Z,1017.8
2023-05-07T03:01:39.000Z,1017.9
2023-05-07T03:02:55.721Z,1017.8
2023-05-07T03:03:53.915Z,1017.9
2023-05-07T03:05:28.000Z,1018
2023-05-07T03:06:44.293Z,1017.9
2023-05-07T03:08:00.487Z,1017.9
2023-05-07T03:09:16.000Z,1018
2023-05-07T03:10:32.000Z,1017.9
2023-05-07T03:11:31.076Z,1018
2023-05-07T03:13:05.264Z,1017.9
2023-05-07T03:14:21.462Z,1017.9
2023-05-07T03:15:37.000Z,1017.9
2023-05-07T03:16:53.840Z,1017.9
2023-05-07T03:18:09.054Z,1017.9
2023-05-07T03:19:07.252Z,1017.8
2023-05-07T03:20:41.452Z,1017.8
2023-05-07T03:21:57.000Z,1017.9
2023-05-07T03:22:55.832Z,1017.9
2023-05-07T03:24:12.025Z,1017.8
2023-05-07T03:25:46.000Z,1017.9
2023-05-07T03:27:02.412Z,1017.9
2023-05-07T03:28:18.000Z,1018
2023-05-07T03:29:34.796Z,1018
2023-05-07T03:30:50.014Z,1018
2023-05-07T03:31:48.212Z,1018
2023-05-07T03:33:21.000Z,1018
2023-05-07T03:34:37.000Z,1017.9
2023-05-07T03:35:53.000Z,1018
2023-05-07T03:36:51.027Z,1017.9
2023-05-07T03:38:25.215Z,1017.9
2023-05-07T03:39:41.414Z,1017.9
2023-05-07T03:40:57.000Z,1017.8
2023-05-07T03:42:13.801Z,1018
2023-05-07T03:43:29.993Z,1018
2023-05-07T03:44:46.199Z,1018
2023-05-07T03:45:44.381Z,1018
2023-05-07T03:47:18.571Z,1018
2023-05-07T03:48:34.000Z,1018
2023-05-07T03:49:50.958Z,1018.1
2023-05-07T03:51:07.154Z,1018.1
2023-05-07T03:52:23.000Z,1018.2
2023-05-07T03:53:39.543Z,1018.1
2023-05-07T03:54:37.736Z,1018.1
2023-05-07T03:56:10.000Z,1018.2
2023-05-07T03:57:27.142Z,1018.1
2023-05-07T03:58:43.330Z,1018.2
2023-05-07T03:59:59.523Z,1018.1
2023-05-07T04:01:15.000Z,1018.2
2023-05-07T04:02:14.058Z,1018.1
2023-05-07T04:03:48.000Z,1018.1
2023-05-07T04:05:04.000Z,1018.1
2023-05-07T04:06:20.000Z,1018.1
2023-05-07T04:07:18.832Z,1018.1
2023-05-07T04:09:19.000Z,1018.1
2023-05-07T04:10:09.220Z,1018.1
2023-05-07T04:11:25.412Z,1018.1
2023-05-07T04:12:41.000Z,1018.1
2023-05-07T04:13:57.807Z,1018.1
2023-05-07T04:14:55.008Z,1018.1
2023-05-07T04:16:11.201Z,1018.1
2023-05-07T04:17:45.000Z,1018.2
2023-05-07T04:19:01.000Z,1018.1
2023-05-07T04:19:59.781Z,1018.1
2023-05-07T04:21:33.974Z,1018.2
2023-05-07T04:22:50.166Z,1018.2
2023-05-07T04:24:06.000Z,1018.2
2023-05-07T04:25:22.000Z,1018.2
2023-05-07T04:26:38.747Z,1018.2
2023-05-07T04:27:54.932Z,1018.3
2023-05-07T04:28:53.133Z,1018.2
2023-05-07T04:30:26.353Z,1018.2
2023-05-07T04:31:42.000Z,1018.2
2023-05-07T04:32:40.739Z,1018.3
2023-05-07T04:34:13.959Z,1018.3
2023-05-07T04:35:12.152Z,1018.2
2023-05-07T04:36:45.369Z,1018.2
2023-05-07T04:38:00.584Z,1018.3
2023-05-07T04:38:58.774Z,1018.3
2023-05-07T04:40:32.973Z,1018.3
2023-05-07T04:41:49.000Z,1018.4
2023-05-07T04:43:05.354Z,1018.4
2023-05-07T04:44:21.548Z,1018.3
2023-05-07T04:45:37.736Z,1018.4
2023-05-07T04:46:53.934Z,1018.4
2023-05-07T04:47:52.127Z,1018.3
2023-05-07T04:49:26.000Z,1018.4
2023-05-07T04:50:42.511Z,1018.4
2023-05-07T04:51:58.704Z,1018.4
2023-05-07T04:52:56.900Z,1018.5
2023-05-07T04:54:31.000Z,1018.5
2023-05-07T04:55:46.000Z,1018.5
2023-05-07T04:57:02.000Z,1018.5
2023-05-07T04:58:18.000Z,1018.5
2023-05-07T04:59:34.000Z,1018.5
2023-05-07T05:00:51.000Z,1018.5
2023-05-07T05:02:07.000Z,1018.5
2023-05-07T05:03:05.461Z,1018.5
2023-05-07T05:04:39.807Z,1018.5
2023-05-07T05:05:38.000Z,1018.5
2023-05-07T05:07:12.202Z,1018.5
2023-05-07T05:08:27.402Z,1018.6
2023-05-07T05:09:43.602Z,1018.5
2023-05-07T05:10:59.785Z,1018.6
2023-05-07T05:12:15.000Z,1018.6
2023-05-07T05:13:32.183Z,1018.6
2023-05-07T05:14:48.365Z,1018.6
2023-05-07T05:16:04.564Z,1018.6
2023-05-07T05:17:02.757Z,1018.5
2023-05-07T05:18:18.950Z,1018.6
2023-05-07T05:19:53.143Z,1018.6
2023-05-07T05:21:09.000Z,1018.7
2023-05-07T05:22:25.000Z,1018.7
2023-05-07T05:23:41.000Z,1018.7
2023-05-07T05:24:57.919Z,1018.7
2023-05-07T05:25:56.109Z,1018.7
2023-05-07T05:27:29.000Z,1018.7
2023-05-07T05:28:45.000Z,1018.7
2023-05-07T05:30:01.704Z,1018.6
2023-05-07T05:30:58.925Z,1018.6
2023-05-07T05:32:33.000Z,1018.6
2023-05-07T05:33:49.312Z,1018.6
2023-05-07T05:35:05.000Z,1018.7
2023-05-07T05:36:03.698Z,1018.6
2023-05-07T05:37:37.000Z,1018.6
2023-05-07T05:38:54.000Z,1018.7
2023-05-07T05:40:10.279Z,1018.7
2023-05-07T05:41:26.472Z,1018.7
2023-05-07T05:42:42.665Z,1018.7
2023-05-07T05:43:58.862Z,1018.7
2023-05-07T05:45:15.059Z,1018.7
2023-05-07T05:46:31.245Z,1018.7
2023-05-07T05:47:29.438Z,1018.7
2023-05-07T05:48:45.631Z,1018.7
2023-05-07T05:50:18.841Z,1018.7
2023-05-07T05:51:17.034Z,1018.7
2023-05-07T05:52:51.000Z,1018.6
2023-05-07T05:54:07.000Z,1018.8
2023-05-07T05:55:23.613Z,1018.8
2023-05-07T05:56:21.806Z,1018.8
2023-05-07T05:57:55.000Z,1018.8
2023-05-07T05:59:11.219Z,1018.8
2023-05-07T06:00:27.415Z,1018.8
2023-05-07T06:01:24.631Z,1018.8
2023-05-07T06:03:25.000Z,1018.8
2023-05-07T06:03:56.030Z,1018.9
2023-05-07T06:05:30.000Z,1018.9
2023-05-07T06:06:46.411Z,1018.9
2023-05-07T06:08:02.611Z,1018.8
2023-05-07T06:09:00.802Z,1018.8
2023-05-07T06:10:34.995Z,1018.9
2023-05-07T06:11:51.000Z,1018.9
2023-05-07T06:13:07.000Z,1018.8
2023-05-07T06:14:05.574Z,1018.9
2023-05-07T06:15:39.780Z,1018.8
2023-05-07T06:16:55.968Z,1018.9
2023-05-07T06:17:54.153Z,1018.8
2023-05-07T06:19:10.346Z,1018.8
2023-05-07T06:20:44.000Z,1018.8
2023-05-07T06:21:42.732Z,1018.9
2023-05-07T06:23:16.935Z,1018.9
2023-05-07T06:24:32.000Z,1018.9
2023-05-07T06:26:14.000Z,1019
2023-05-07T06:26:46.520Z,1018.9
2023-05-07T06:28:20.861Z,1018.9
2023-05-07T06:29:37.050Z,1018.9
2023-05-07T06:30:53.396Z,1019
2023-05-07T06:31:51.586Z,1018.9
2023-05-07T06:33:24.805Z,1019
2023-05-07T06:34:23.121Z,1019
2023-05-07T06:35:57.314Z,1018.9
2023-05-07T06:37:13.507Z,1019.1
2023-05-07T06:38:29.697Z,1019
2023-05-07T06:39:45.901Z,1019.1
2023-05-07T06:41:02.092Z,1019.1
2023-05-07T06:42:18.289Z,1019.1
2023-05-07T06:43:34.000Z,1019.1
2023-05-07T06:44:50.670Z,1019.2
2023-05-07T06:46:06.856Z,1019.1
2023-05-07T06:47:23.000Z,1019.2
2023-05-07T06:48:39.248Z,1019.2
2023-05-07T06:49:55.436Z,1019.2
2023-05-07T06:51:11.000Z,1019.2
2023-05-07T06:52:09.822Z,1019.2
2023-05-07T06:53:43.030Z,1019.2
2023-05-07T06:54:41.224Z,1019.2
2023-05-07T06:56:15.000Z,1019.2
2023-05-07T06:57:31.610Z,1019.3
2023-05-07T06:58:47.000Z,1019.2
2023-05-07T06:59:45.995Z,1019.3
2023-05-07T07:01:20.000Z,1019.2
2023-05-07T07:02:36.000Z,1019.2
2023-05-07T07:03:52.571Z,1019.3
2023-05-07T07:04:50.768Z,1019.2
2023-05-07T07:06:24.961Z,1019.3
2023-05-07T07:07:41.156Z,1019.3
2023-05-07T07:08:56.381Z,1019.3
2023-05-07T07:10:11.000Z,1019.3
2023-05-07T07:11:09.776Z,1019.3
2023-05-07T07:12:25.969Z,1019.2
2023-05-07T07:14:00.000Z,1019.3
2023-05-07T07:15:16.000Z,1019.3
2023-05-07T07:16:32.550Z,1019.2
2023-05-07T07:17:48.000Z,1019.3
2023-05-07T07:19:31.000Z,1019.2
2023-05-07T07:20:21.127Z,1019.3
2023-05-07T07:21:37.000Z,1019.3
2023-05-07T07:22:53.513Z,1019.2
2023-05-07T07:24:09.708Z,1019.2
2023-05-07T07:25:25.899Z,1019.2
2023-05-07T07:26:42.000Z,1019.2
2023-05-07T07:27:58.000Z,1019.3
2023-05-07T07:29:14.000Z,1019.3
2023-05-07T07:30:12.672Z,1019.3
2023-05-07T07:31:45.880Z,1019.2
2023-05-07T07:33:02.069Z,1019.2
2023-05-07T07:34:18.000Z,1019.2
2023-05-07T07:35:34.466Z,1019.3
2023-05-07T07:36:50.000Z,1019.3
2023-05-07T07:37:48.846Z,1019.2
2023-05-07T07:39:23.000Z,1019.2
2023-05-07T07:40:39.000Z,1019.2
2023-05-07T07:41:55.431Z,1019.1
2023-05-07T07:43:11.614Z,1019.1
2023-05-07T07:44:26.000Z,1019.2
2023-05-07T07:45:25.031Z,1019.2
2023-05-07T07:46:59.225Z,1019.1
2023-05-07T07:48:15.417Z,1019.2
2023-05-07T07:49:31.000Z,1019
2023-05-07T07:50:47.808Z,1019.2
2023-05-07T07:52:04.000Z,1019.1
2023-05-07T07:53:20.000Z,1019.1
2023-05-07T07:54:36.389Z,1019.2
2023-05-07T07:55:52.587Z,1019.1
2023-05-07T07:57:07.786Z,1019.1
2023-05-07T07:58:23.989Z,1019.1
2023-05-07T07:59:40.171Z,1019.2
2023-05-07T08:00:56.373Z,1019.1
2023-05-07T08:02:12.553Z,1019.2
2023-05-07T08:03:28.758Z,1019.1
2023-05-07T08:04:44.000Z,1019.2
2023-05-07T08:06:01.137Z,1019.2
2023-05-07T08:07:17.000Z,1019.2
2023-05-07T08:08:33.528Z,1019.2
2023-05-07T08:09:49.723Z,1019.2
2023-05-07T08:10:47.909Z,1019.2
2023-05-07T08:12:21.000Z,1019.2
2023-05-07T08:13:37.327Z,1019.2
2023-05-07T08:14:52.000Z,1019.2
2023-05-07T08:15:50.724Z,1019.1
2023-05-07T08:17:24.926Z,1019.2
2023-05-07T08:18:41.000Z,1019.1
2023-05-07T08:19:57.312Z,1019.2
2023-05-07T08:21:13.000Z,1019.2
2023-05-07T08:22:29.000Z,1019.1
2023-05-07T08:23:27.883Z,1019.1
2023-05-07T08:25:02.000Z,1019.2
2023-05-07T08:26:18.284Z,1019.2
2023-05-07T08:27:34.458Z,1019.1
2023-05-07T08:29:17.000Z,1019.2
2023-05-07T08:30:06.000Z,1019.2
2023-05-07T08:31:23.000Z,1019.3
2023-05-07T08:32:39.000Z,1019.3
2023-05-07T08:34:22.000Z,1019.2
2023-05-07T08:35:10.639Z,1019.2
2023-05-07T08:36:08.831Z,1019.3
2023-05-07T08:37:43.024Z,1019.3
2023-05-07T08:38:59.216Z,1019.2
2023-05-07T08:40:15.410Z,1019.2
2023-05-07T08:41:31.604Z,1019.2
2023-05-07T08:42:47.802Z,1019.2
2023-05-07T08:44:03.000Z,1019.3
2023-05-07T08:45:20.185Z,1019.3
2023-05-07T08:46:18.378Z,1019.2
2023-05-07T08:47:52.000Z,1019.2
2023-05-07T08:49:08.765Z,1019.3
2023-05-07T08:50:24.953Z,1019.2
2023-05-07T08:51:41.000Z,1019.2
2023-05-07T08:52:57.345Z,1019.3
2023-05-07T08:54:13.533Z,1019.3
2023-05-07T08:55:28.000Z,1019.3
2023-05-07T08:56:44.000Z,1019.3
2023-05-07T08:58:01.000Z,1019.3
2023-05-07T08:59:17.325Z,1019.2
2023-05-07T09:00:33.000Z,1019.3
2023-05-07T09:01:49.716Z,1019.3
2023-05-07T09:03:05.908Z,1019.2
2023-05-07T09:04:22.101Z,1019.3
2023-05-07T09:05:38.000Z,1019.2
2023-05-07T09:06:54.487Z,1019.2
2023-05-07T09:08:10.000Z,1019.3
2023-05-07T09:09:26.875Z,1019.3
2023-05-07T09:10:43.071Z,1019.2
2023-05-07T09:11:59.270Z,1019.3
2023-05-07T09:13:14.468Z,1019.4
2023-05-07T09:14:30.659Z,1019.3
2023-05-07T09:15:46.000Z,1019.2
2023-05-07T09:17:03.000Z,1019.4
2023-05-07T09:18:19.252Z,1019.3
2023-05-07T09:19:35.000Z,1019.2
2023-05-07T09:20:51.633Z,1019.3
2023-05-07T09:22:07.000Z,1019.3
2023-05-07T09:23:24.000Z,1019.4
2023-05-07T09:24:40.225Z,1019.4
2023-05-07T09:26:22.000Z,1019.4
2023-05-07T09:27:11.624Z,1019.3
2023-05-07T09:28:27.814Z,1019.4
2023-05-07T09:29:44.011Z,1019.3
2023-05-07T09:31:00.000Z,1019.3
2023-05-07T09:32:16.397Z,1019.4
2023-05-07T09:33:32.583Z,1019.4
2023-05-07T09:34:48.000Z,1019.3
2023-05-07T09:36:04.986Z,1019.3
2023-05-07T09:37:03.166Z,1019.3
2023-05-07T09:38:37.358Z,1019.3
2023-05-07T09:39:53.559Z,1019.4
2023-05-07T09:41:09.750Z,1019.4
2023-05-07T09:42:25.936Z,1019.3
2023-05-07T09:43:42.133Z,1019.5
2023-05-07T09:44:39.338Z,1019.4
2023-05-07T09:46:13.000Z,1019.4
2023-05-07T09:47:29.000Z,1019.4
2023-05-07T09:49:12.000Z,1019.5
2023-05-07T09:50:02.000Z,1019.5
2023-05-07T09:51:18.303Z,1019.5
2023-05-07T09:52:34.507Z,1019.4
2023-05-07T09:53:50.000Z,1019.5
2023-05-07T09:55:06.877Z,1019.4
2023-05-07T09:56:23.088Z,1019.5
2023-05-07T09:57:39.281Z,1019.6
2023-05-07T09:58:55.463Z,1019.5
2023-05-07T10:00:11.000Z,1019.5
2023-05-07T10:01:27.851Z,1019.5
2023-05-07T10:02:44.044Z,1019.6
2023-05-07T10:04:00.239Z,1019.6
2023-05-07T10:05:16.433Z,1019.6
2023-05-07T10:06:32.000Z,1019.5
2023-05-07T10:07:48.813Z,1019.5
2023-05-07T10:09:05.000Z,1019.5
2023-05-07T10:10:03.204Z,1019.6
2023-05-07T10:11:37.396Z,1019.4
2023-05-07T10:12:53.000Z,1019.5
2023-05-07T10:14:09.000Z,1019.4
2023-05-07T10:15:07.976Z,1019.5
2023-05-07T10:16:42.000Z,1019.5
2023-05-07T10:17:58.365Z,1019.4
2023-05-07T10:19:14.567Z,1019.5
2023-05-07T10:20:29.770Z,1019.4
2023-05-07T10:21:45.967Z,1019.4
2023-05-07T10:22:44.151Z,1019.5
2023-05-07T10:24:18.346Z,1019.6
2023-05-07T10:25:34.537Z,1019.6
2023-05-07T10:26:50.000Z,1019.4
2023-05-07T10:27:48.922Z,1019.5
2023-05-07T10:29:23.115Z,1019.4
2023-05-07T10:30:21.308Z,1019.5
2023-05-07T10:31:55.000Z,1019.5
2023-05-07T10:33:11.000Z,1019.5
2023-05-07T10:34:27.000Z,1019.5
2023-05-07T10:35:44.081Z,1019.5
2023-05-07T10:36:59.000Z,1019.5
2023-05-07T10:38:15.000Z,1019.3
2023-05-07T10:39:31.000Z,1019.5
2023-05-07T10:40:47.870Z,1019.5
2023-05-07T10:42:04.000Z,1019.5
2023-05-07T10:43:02.253Z,1019.5
2023-05-07T10:44:36.000Z,1019.4
2023-05-07T10:45:52.640Z,1019.4
2023-05-07T10:47:08.832Z,1019.4
2023-05-07T10:48:07.025Z,1019.5
2023-05-07T10:49:41.000Z,1019.5
2023-05-07T10:50:57.411Z,1019.5
2023-05-07T10:52:13.603Z,1019.5
2023-05-07T10:53:29.810Z,1019.5
2023-05-07T10:54:46.000Z,1019.5
2023-05-07T10:56:02.302Z,1019.5
2023-05-07T10:57:18.000Z,1019.6
2023-05-07T10:58:34.685Z,1019.5
2023-05-07T10:59:50.888Z,1019.6
2023-05-07T11:01:07.075Z,1019.4
2023-05-07T11:02:23.272Z,1019.5
2023-05-07T11:03:39.000Z,1019.5
2023-05-07T11:04:55.659Z,1019.6
2023-05-07T11:06:11.000Z,1019.5
2023-05-07T11:07:28.000Z,1019.4
2023-05-07T11:08:44.236Z,1019.5
2023-05-07T11:10:00.000Z,1019.6
2023-05-07T11:10:58.618Z,1019.5
2023-05-07T11:12:31.824Z,1019.5
2023-05-07T11:13:30.019Z,1019.5
2023-05-07T11:15:04.207Z,1019.5
2023-05-07T11:16:20.000Z,1019.5
2023-05-07T11:17:36.000Z,1019.5
2023-05-07T11:18:52.802Z,1019.4
2023-05-07T11:20:35.000Z,1019.4
2023-05-07T11:21:07.177Z,1019.3
2023-05-07T11:22:41.369Z,1019.3
2023-05-07T11:23:57.562Z,1019.3
2023-05-07T11:25:13.000Z,1019.2
2023-05-07T11:26:29.947Z,1019.4
2023-05-07T11:27:46.000Z,1019.3
2023-05-07T11:29:02.000Z,1019.3
2023-05-07T11:30:18.000Z,1019.3
2023-05-07T11:31:34.000Z,1019.2
2023-05-07T11:32:50.000Z,1019.4
2023-05-07T11:34:07.000Z,1019.4
2023-05-07T11:35:22.322Z,1019.3
2023-05-07T11:36:38.514Z,1019.4
2023-05-07T11:37:54.000Z,1019.4
2023-05-07T11:38:52.902Z,1019.3
2023-05-07T11:40:27.000Z,1019.3
2023-05-07T11:41:43.000Z,1019.4
2023-05-07T11:42:59.484Z,1019.2
2023-05-07T11:44:15.678Z,1019.3
2023-05-07T11:45:31.000Z,1019.2
2023-05-07T11:46:30.066Z,1019.2
2023-05-07T11:48:04.000Z,1019.2
2023-05-07T11:49:20.465Z,1019.4
2023-05-07T11:50:36.000Z,1019.4
2023-05-07T11:51:52.845Z,1019.3
2023-05-07T11:53:09.037Z,1019.3
2023-05-07T11:54:24.000Z,1019.2
2023-05-07T11:55:40.000Z,1019.4
2023-05-07T11:56:56.641Z,1019.3
2023-05-07T11:58:12.842Z,1019.4
2023-05-07T11:59:11.028Z,1019.3
2023-05-07T12:00:45.000Z,1019.2
2023-05-07T12:02:01.420Z,1019.1
2023-05-07T12:03:17.000Z,1019.2
2023-05-07T12:04:15.808Z,1019.2
2023-05-07T12:05:50.016Z,1019.2
2023-05-07T12:07:06.198Z,1019.2
2023-05-07T12:08:22.000Z,1019.3
2023-05-07T12:09:38.599Z,1019.3
2023-05-07T12:10:54.000Z,1019.3
2023-05-07T12:12:10.985Z,1019.2
2023-05-07T12:13:26.197Z,1019.2
2023-05-07T12:14:42.000Z,1019.2
2023-05-07T12:15:58.000Z,1019.3
2023-05-07T12:17:14.000Z,1019.3
2023-05-07T12:18:30.969Z,1019.3
2023-05-07T12:19:47.000Z,1019.3
2023-05-07T12:21:03.358Z,1019.2
2023-05-07T12:22:19.566Z,1019.2
2023-05-07T12:23:35.758Z,1019.4
2023-05-07T12:24:33.943Z,1019.2
2023-05-07T12:26:08.000Z,1019.3
2023-05-07T12:27:24.334Z,1019.3
2023-05-07T12:28:40.530Z,1019.2
2023-05-07T12:29:56.731Z,1019.3
2023-05-07T12:30:54.920Z,1019.2
2023-05-07T12:32:29.115Z,1019.2
2023-05-07T12:33:45.311Z,1019.2
2023-05-07T12:35:01.505Z,1019.2
2023-05-07T12:36:17.701Z,1019.2
2023-05-07T12:37:33.912Z,1019.2
2023-05-07T12:38:50.000Z,1019.2
2023-05-07T12:39:47.301Z,1019.3
2023-05-07T12:41:21.497Z,1019.3
2023-05-07T12:42:37.689Z,1019.3
2023-05-07T12:44:20.000Z,1019.3
2023-05-07T12:45:10.000Z,1019.3
2023-05-07T12:46:26.292Z,1019.2
2023-05-07T12:47:42.479Z,1019.3
2023-05-07T12:48:58.000Z,1019.3
2023-05-07T12:49:56.862Z,1019.2
2023-05-07T12:51:31.000Z,1019.2
2023-05-07T12:52:47.246Z,1019.3
2023-05-07T12:54:30.000Z,1019.3
2023-05-07T12:55:01.642Z,1019.3
2023-05-07T12:56:35.000Z,1019.3
2023-05-07T12:57:52.000Z,1019.3
2023-05-07T12:59:08.000Z,1019.3
2023-05-07T13:00:24.421Z,1019.2
2023-05-07T13:01:40.617Z,1019.3
2023-05-07T13:02:38.811Z,1019.3
2023-05-07T13:04:12.022Z,1019.2
2023-05-07T13:05:28.219Z,1019.2
2023-05-07T13:06:44.000Z,1019.3
2023-05-07T13:07:42.607Z,1019.3
2023-05-07T13:09:16.000Z,1019.2
2023-05-07T13:10:33.000Z,1019.2
2023-05-07T13:11:49.000Z,1019.3
2023-05-07T13:13:05.395Z,1019.3
2023-05-07T13:14:21.580Z,1019.3
2023-05-07T13:15:37.776Z,1019.3
2023-05-07T13:16:53.000Z,1019.3
2023-05-07T13:18:10.166Z,1019.3
2023-05-07T13:19:26.000Z,1019.2
2023-05-07T13:20:42.556Z,1019.2
2023-05-07T13:21:57.767Z,1019.3
2023-05-07T13:23:13.961Z,1019.3
2023-05-07T13:24:30.157Z,1019.4
2023-05-07T13:25:46.000Z,1019.3
2023-05-07T13:27:02.000Z,1019.4
2023-05-07T13:28:00.743Z,1019.3
2023-05-07T13:29:34.936Z,1019.3
2023-05-07T13:30:51.136Z,1019.3
2023-05-07T13:32:07.334Z,1019.3
2023-05-07T13:33:23.537Z,1019.3
2023-05-07T13:34:39.000Z,1019.4
2023-05-07T13:35:55.915Z,1019.3
2023-05-07T13:37:12.000Z,1019.2
2023-05-07T13:38:28.000Z,1019.3
2023-05-07T13:39:44.496Z,1019.2
2023-05-07T13:41:00.706Z,1019.2
2023-05-07T13:42:15.000Z,1019.2
2023-05-07T13:43:32.107Z,1019.3
2023-05-07T13:44:48.300Z,1019.2
2023-05-07T13:46:04.494Z,1019.2
2023-05-07T13:47:20.000Z,1019.3
2023-05-07T13:48:36.000Z,1019.2
2023-05-07T13:49:53.000Z,1019.2
2023-05-07T13:50:51.279Z,1019.2
2023-05-07T13:52:25.472Z,1019.2
2023-05-07T13:53:41.000Z,1019.2
2023-05-07T13:54:57.860Z,1019.2
2023-05-07T13:56:14.000Z,1019.3
2023-05-07T13:57:30.000Z,1019.3
2023-05-07T13:58:46.446Z,1019.4
2023-05-07T14:00:01.659Z,1019.3
2023-05-07T14:01:17.000Z,1019.3
2023-05-07T14:02:16.049Z,1019.2
2023-05-07T14:03:50.000Z,1019.3
2023-05-07T14:05:06.439Z,1019.2
2023-05-07T14:06:22.628Z,1019.2
2023-05-07T14:07:38.843Z,1019.3
2023-05-07T14:08:37.024Z,1019.2
2023-05-07T14:10:11.000Z,1019.2
2023-05-07T14:11:09.414Z,1019.2
2023-05-07T14:12:43.000Z,1019.2
2023-05-07T14:13:59.000Z,1019.2
2023-05-07T14:15:16.000Z,1019.2
2023-05-07T14:16:32.000Z,1019.2
2023-05-07T14:17:48.389Z,1019.2
2023-05-07T14:19:04.597Z,1019.2
2023-05-07T14:20:20.000Z,1019.1
2023-05-07T14:21:36.000Z,1019.2
2023-05-07T14:22:53.000Z,1019.2
2023-05-07T14:23:51.365Z,1019.2
2023-05-07T14:25:25.560Z,1019.1
2023-05-07T14:26:40.768Z,1019.2
2023-05-07T14:27:56.000Z,1019.1
2023-05-07T14:29:13.166Z,1019.1
2023-05-07T14:30:29.000Z,1019.1
2023-05-07T14:31:27.550Z,1019.1
2023-05-07T14:33:01.000Z,1019.1
2023-05-07T14:33:59.941Z,1019.1
2023-05-07T14:35:34.000Z,1019
2023-05-07T14:36:50.335Z,1019.1
2023-05-07T14:38:33.000Z,1019.1
2023-05-07T14:39:22.722Z,1019.2
2023-05-07T14:40:38.918Z,1019.2
2023-05-07T14:41:55.119Z,1019.2
2023-05-07T14:43:11.000Z,1019.2
2023-05-07T14:44:27.504Z,1019.2
2023-05-07T14:45:42.000Z,1019.1
2023-05-07T14:46:58.907Z,1019.2
2023-05-07T14:48:15.108Z,1019.1
2023-05-07T14:49:31.296Z,1019
2023-05-07T14:50:47.000Z,1019.2
2023-05-07T14:52:03.687Z,1019.2
2023-05-07T14:53:19.000Z,1019.2
2023-05-07T14:54:36.077Z,1019.2
2023-05-07T14:55:52.000Z,1019.2
2023-05-07T14:57:08.000Z,1019.2
2023-05-07T14:58:24.658Z,1019.2
2023-05-07T14:59:22.857Z,1019.2
2023-05-07T15:00:57.000Z,1019.2
2023-05-07T15:01:55.247Z,1019.3
2023-05-07T15:03:28.461Z,1019.3
2023-05-07T15:04:44.000Z,1019.3
2023-05-07T15:06:00.000Z,1019.2
2023-05-07T15:07:17.043Z,1019.3
2023-05-07T15:08:33.239Z,1019.3
2023-05-07T15:09:49.439Z,1019.2
2023-05-07T15:11:05.000Z,1019.3
2023-05-07T15:12:03.825Z,1019.2
2023-05-07T15:13:38.000Z,1019.3
2023-05-07T15:15:20.000Z,1019.3
2023-05-07T15:16:10.406Z,1019.4
2023-05-07T15:17:26.605Z,1019.3
2023-05-07T15:18:42.000Z,1019.3
2023-05-07T15:20:25.000Z,1019.3
2023-05-07T15:21:14.205Z,1019.2
2023-05-07T15:22:30.398Z,1019.3
2023-05-07T15:23:46.589Z,1019.3
2023-05-07T15:25:02.782Z,1019.3
2023-05-07T15:26:18.000Z,1019.3
2023-05-07T15:27:17.176Z,1019.3
2023-05-07T15:28:51.000Z,1019.3
2023-05-07T15:30:07.000Z,1019.4
2023-05-07T15:31:23.754Z,1019.4
2023-05-07T15:32:39.955Z,1019.4
2023-05-07T15:33:56.000Z,1019.5
2023-05-07T15:35:12.000Z,1019.5
2023-05-07T15:36:28.000Z,1019.4
2023-05-07T15:37:44.730Z,1019.4
2023-05-07T15:38:59.944Z,1019.3
2023-05-07T15:40:16.144Z,1019.4
2023-05-07T15:41:32.000Z,1019.4
2023-05-07T15:42:48.000Z,1019.4
2023-05-07T15:44:04.000Z,1019.4
2023-05-07T15:45:02.917Z,1019.4
2023-05-07T15:46:37.000Z,1019.4
2023-05-07T15:47:53.303Z,1019.4
2023-05-07T15:49:09.000Z,1019.4
2023-05-07T15:50:25.696Z,1019.4